Latest Coastal Weather Observations for Horn Island

IDQ60701

Issued at 7:15 am EST Tuesday 21 October 2014 (issued every 10 minutes, with the page automatically refreshed every 10 minutes)

About coastal observations | Map of coastal stations | Coastal observations for QLD | Marine services | Other Formats
Station Details ID: 027058 Name: HORN ISLAND Lat: -10.58 Lon: 142.29 Height: 4.0 m
Data from the previous 72 hours. | See also: Recent months at Horn Island
Date/Time
EST
Temp

°C
Wind Pressure Rain
since 9am
mm
Weather Cloud Vis
km
Sea
Height
m
Swell
Dir
 
Speed
knots
Gust
knots
hPa Trend Height
m
Period
s
Dir
21/07:14am 26.5 SE 16 26 1013.8 - 0.0 - Partly cloudy 10 - - - -
21/07:00am 26.0 SE 17 22 1013.7 - 0.0 - Partly cloudy 10 - - - -
21/06:30am 25.9 SE 19 27 1013.2 - 0.0 - Partly cloudy 10 - - - -
21/06:00am 25.7 SE 13 19 1012.9 - 0.0 - Cloudy 10 - - - -
21/05:30am 25.5 SE 15 22 1012.7 - 0.0 - Partly cloudy 10 - - - -
21/05:00am 25.8 SE 16 23 1012.4 - 0.0 - Partly cloudy 10 - - - -
21/04:30am 25.8 SE 13 18 1012.1 - 0.0 - Partly cloudy 9 - - - -
21/04:00am 25.8 ESE 15 21 1012.1 - 0.0 - Partly cloudy 10 - - - -
21/03:32am 25.8 SE 15 26 1012.2 - 0.0 - Partly cloudy 10 - - - -
21/03:30am 25.7 SE 13 19 1012.2 - 0.0 - Partly cloudy 10 - - - -
21/03:04am 25.7 SE 15 25 1012.4 - 0.0 - Partly cloudy 10 - - - -
21/03:00am 25.6 SE 14 20 1012.3 - 0.0 - Cloudy 9 - - - -
21/02:30am 25.7 SE 15 20 1012.6 - 0.0 - Partly cloudy 10 - - - -
21/02:00am 25.8 SE 15 22 1012.9 - 0.0 - Partly cloudy 10 - - - -
21/01:30am 25.9 ESE 16 22 1013.3 - 0.0 - Partly cloudy 10 - - - -
21/01:00am 25.8 ESE 17 22 1013.4 - 0.0 - Partly cloudy 10 - - - -
21/12:30am 25.9 SE 17 24 1013.7 - 0.0 - Partly cloudy 10 - - - -
21/12:14am 25.7 SE 15 25 1013.8 - 0.0 - Partly cloudy 10 - - - -
21/12:00am 25.7 SE 16 25 1013.8 - 0.0 - Mostly clear 10 - - - -
 
Date/Time
EST
Temp

°C
Wind Pressure Rain
since 9am
mm
Weather Cloud Vis
km
Sea
Height
m
Swell
Dir
 
Speed
knots
Gust
knots
hPa Trend Height
m
Period
s
Dir
20/11:53pm 25.6 SE 15 25 1013.9 - 0.0 - Partly cloudy 10 - - - -
20/11:30pm 25.8 SE 17 23 1014.2 - 0.0 - Partly cloudy 10 - - - -
20/11:00pm 26.2 ESE 16 23 1014.3 - 0.0 - Partly cloudy 10 - - - -
20/10:30pm 26.2 SE 15 22 1014.3 - 0.0 - Partly cloudy 10 - - - -
20/10:00pm 26.1 SE 16 24 1014.2 - 0.0 - Partly cloudy 10 - - - -
20/09:30pm 25.9 SE 16 21 1013.9 - 0.0 - Partly cloudy 10 - - - -
20/09:00pm 26.0 SE 13 18 1013.7 - 0.0 - Cloudy 10 - - - -
20/08:30pm 26.0 SE 16 22 1013.4 - 0.0 - Partly cloudy 10 - - - -
20/08:00pm 26.1 SE 15 21 1013.2 - 0.0 - Partly cloudy 10 - - - -
20/07:30pm 26.0 SE 15 24 1012.9 - 0.0 - Partly cloudy 10 - - - -
20/07:00pm 26.3 SE 17 23 1012.5 - 0.0 - Partly cloudy 10 - - - -
20/06:30pm 26.5 SE 18 25 1012.3 - 0.0 - Partly cloudy 10 - - - -
20/06:03pm 26.3 ESE 17 27 1012.0 - 0.0 - Partly cloudy 10 - - - -
20/06:00pm 26.1 ESE 18 27 1011.9 - 0.0 - Cloudy 10 - - - -
20/05:30pm 26.8 SE 19 31 1011.6 - 0.0 - Partly cloudy 10 - - - -
20/05:12pm 28.4 SE 20 30 1011.3 - 0.0 - Partly cloudy 10 - - - -
20/05:00pm 28.2 SE 20 25 1011.3 - 0.0 - Partly cloudy 10 - - - -
20/04:30pm 28.7 SE 20 26 1011.3 - 0.0 - Partly cloudy 10 - - - -
20/04:00pm 29.3 ESE 23 31 1011.2 - 0.0 - Partly cloudy 10 - - - -
20/03:30pm 29.2 ESE 21 32 1011.3 - 0.0 - Partly cloudy 10 - - - -
20/03:28pm 29.9 ESE 21 32 1011.4 - 0.0 - Partly cloudy 10 - - - -
20/03:00pm 29.9 ESE 21 29 1011.4 - 0.0 - - 10 - - - -
20/02:44pm 29.7 ESE 21 32 1011.5 - 0.0 - - 10 - - - -
20/02:30pm 29.5 ESE 23 31 1011.6 - 0.0 - Partly cloudy 10 - - - -
20/02:05pm 30.3 ESE 19 29 1011.8 - 0.0 - Partly cloudy 10 - - - -
20/02:00pm 29.6 ESE 22 30 1011.8 - 0.0 - Partly cloudy 10 - - - -
20/01:41pm 30.0 ESE 19 29 1012.0 - 0.0 - Partly cloudy 10 - - - -
20/01:30pm 30.5 E 19 26 1012.1 - 0.0 - Partly cloudy 10 - - - -
20/01:25pm 29.6 E 19 26 1012.2 - 0.0 - Partly cloudy 10 - - - -
20/01:00pm 28.8 SE 20 30 1012.7 - 0.0 - Partly cloudy 10 - - - -
20/12:55pm 28.4 SE 20 30 1012.9 - 0.0 - Partly cloudy 10 - - - -
20/12:30pm 29.1 SE 21 29 1013.2 - 0.0 - - 10 - - - -
20/12:00pm 30.0 ESE 19 24 1013.6 - 0.0 - Cloudy 10 - - - -
20/11:30am 29.2 ESE 19 26 1013.9 - 0.0 - Partly cloudy 10 - - - -
20/11:00am 30.7 ESE 18 25 1014.3 - 0.0 - Partly cloudy 10 - - - -
20/10:31am 30.3 ESE 21 31 1014.5 - 0.0 - Partly cloudy 10 - - - -
20/10:30am 30.1 ESE 22 31 1014.5 - 0.0 - Partly cloudy 10 - - - -
20/10:00am 28.8 SE 19 26 1014.7 - 0.0 - Partly cloudy 10 - - - -
20/09:30am 28.4 SE 20 27 1014.8 - 0.0 - Partly cloudy 10 - - - -
20/09:00am 27.7 SE 16 23 1014.8 - 0.0 - Cloudy 10 - - - -
20/08:30am 27.4 SE 17 23 1014.7 - 0.0 - Partly cloudy 10 - - - -
20/08:00am 26.8 SE 15 21 1014.7 - 0.0 - Partly cloudy 10 - - - -
20/07:30am 26.2 SE 12 18 1014.4 - 0.0 - Partly cloudy 10 - - - -
20/07:00am 25.9 SE 12 18 1014.2 - 0.0 - Partly cloudy 10 - - - -
20/06:30am 25.4 SE 12 18 1013.8 - 0.0 - Partly cloudy 10 - - - -
20/06:00am 25.5 SE 15 22 1013.4 - 0.0 - Cloudy 10 - - - -
20/05:30am 25.6 SE 11 16 1013.1 - 0.0 - Partly cloudy 10 - - - -
20/05:00am 25.8 SE 14 20 1012.8 - 0.0 - Partly cloudy 10 - - - -
20/04:30am 25.4 SE 13 17 1012.8 - 0.0 - Partly cloudy 10 - - - -
20/04:00am 25.6 SE 11 17 1012.6 - 0.0 - Partly cloudy 10 - - - -
20/03:30am 25.7 SE 13 20 1012.4 - 0.0 - Partly cloudy 10 - - - -
20/03:00am 25.7 SE 14 20 1012.5 - 0.0 - Cloudy 10 - - - -
20/02:30am 25.8 SE 12 16 1012.6 - 0.0 - Partly cloudy 10 - - - -
20/02:00am 26.0 SE 14 20 1012.8 - 0.0 - Partly cloudy 10 - - - -
20/01:30am 25.8 SE 13 17 1013.0 - 0.0 - Partly cloudy 10 - - - -
20/01:00am 25.9 SE 14 22 1013.4 - 0.0 - Partly cloudy 10 - - - -
20/12:30am 25.9 SE 13 19 1013.8 - 0.0 - Partly cloudy 10 - - - -
20/12:00am 25.7 SE 15 20 1014.2 - 0.0 - Mostly clear 10 - - - -
 
Date/Time
EST
Temp

°C
Wind Pressure Rain
since 9am
mm
Weather Cloud Vis
km
Sea
Height
m
Swell
Dir
 
Speed
knots
Gust
knots
hPa Trend Height
m
Period
s
Dir
19/11:30pm 25.7 SE 16 23 1014.5 - 0.0 - Partly cloudy 10 - - - -
19/11:00pm 25.8 SE 15 20 1014.6 - 0.0 - Partly cloudy 10 - - - -
19/10:30pm 26.0 SE 16 23 1014.8 - 0.0 - Partly cloudy 10 - - - -
19/10:00pm 26.0 ESE 14 20 1014.8 - 0.0 - Partly cloudy 10 - - - -
19/09:30pm 26.1 ESE 18 24 1014.5 - 0.0 - Partly cloudy 10 - - - -
19/09:00pm 26.1 ESE 16 22 1014.2 - 0.0 - Partly cloudy 10 - - - -
19/08:30pm 26.1 SE 16 21 1013.9 - 0.0 - Partly cloudy 10 - - - -
19/08:00pm 26.2 SE 16 24 1013.5 - 0.0 - Partly cloudy 10 - - - -
19/07:30pm 26.2 SE 16 21 1013.1 - 0.0 - Partly cloudy 10 - - - -
19/07:00pm 26.3 ESE 19 26 1012.8 - 0.0 - Partly cloudy 10 - - - -
19/06:40pm 26.4 ESE 16 26 1012.6 - 0.0 - Partly cloudy 10 - - - -
19/06:30pm 26.4 ESE 18 25 1012.6 - 0.0 - Partly cloudy 10 - - - -
19/06:00pm 26.7 ESE 17 25 1012.4 - 0.0 - - 10 - - - -
19/05:30pm 27.1 ESE 21 27 1012.1 - 0.0 - Partly cloudy 10 - - - -
19/05:10pm 28.1 ESE 17 27 1011.9 - 0.0 - Partly cloudy 10 - - - -
19/05:00pm 27.7 ESE 20 28 1011.8 - 0.0 - Partly cloudy 10 - - - -
19/04:52pm 28.0 ESE 18 28 1011.7 - 0.0 - Partly cloudy 10 - - - -
19/04:30pm 28.1 ESE 20 26 1011.6 - 0.0 - Partly cloudy 10 - - - -
19/04:00pm 28.9 ESE 19 28 1011.6 - 0.0 - - 10 - - - -
19/03:30pm 28.6 ESE 19 25 1011.6 - 0.0 - Partly cloudy 10 - - - -
19/03:00pm 29.2 ESE 19 27 1011.7 - 0.0 - Mostly clear 10 - - - -
19/02:30pm 29.2 ESE 20 28 1011.7 - 0.0 - Partly cloudy 10 - - - -
19/02:00pm 29.8 ESE 18 27 1011.8 - 0.0 - Partly cloudy 10 - - - -
19/01:30pm 29.9 ESE 19 28 1012.1 - 0.0 - - 10 - - - -
19/01:01pm 29.6 ESE 19 29 1012.7 - 0.0 - Partly cloudy 10 - - - -
19/01:00pm 29.6 ESE 20 29 1012.6 - 0.0 - Partly cloudy 10 - - - -
19/12:30pm 29.5 ESE 20 26 1013.1 - 0.0 - - 10 - - - -
19/12:00pm 29.7 ESE 21 28 1013.7 - 0.0 - - 10 - - - -
19/11:30am 29.3 ESE 20 26 1014.2 - 0.0 - Partly cloudy 10 - - - -
19/11:00am 29.3 ESE 20 26 1014.5 - 0.0 - - 10 - - - -
19/10:30am 29.1 ESE 21 27 1014.7 - 0.0 - - 10 - - - -
19/10:00am 29.4 ESE 20 28 1014.9 - 0.0 - Partly cloudy 10 - - - -
19/09:30am 28.7 ESE 20 27 1015.1 - 0.0 - Partly cloudy 10 - - - -
19/09:19am 27.9 ESE 18 28 1015.1 - 0.0 - Partly cloudy 8 - - - -
19/09:00am 27.9 ESE 19 27 1015.0 - 0.0 - Partly cloudy 10 - - - -
19/08:38am 27.6 ESE 17 27 1015.0 - 0.0 - Partly cloudy 10 - - - -
19/08:30am 27.4 ESE 18 23 1015.0 - 0.0 - Partly cloudy 10 - - - -
19/08:00am 27.3 ESE 15 22 1014.9 - 0.0 - Partly cloudy 10 - - - -
19/07:30am 26.1 ESE 16 21 1014.5 - 0.0 - Partly cloudy 10 - - - -
19/07:00am 25.7 ESE 16 23 1014.3 - 0.0 - Partly cloudy 10 - - - -
19/06:30am 25.5 ESE 16 21 1014.0 - 0.0 - Partly cloudy 10 - - - -
19/06:00am 25.3 ESE 14 21 1013.8 - 0.0 - Mostly cloudy 10 - - - -
19/05:30am 25.3 ESE 16 21 1013.5 - 0.0 - Partly cloudy 10 - - - -
19/05:00am 25.3 ESE 16 22 1013.1 - 0.0 - Partly cloudy 10 - - - -
19/04:30am 25.3 ESE 16 24 1013.0 - 0.0 - Partly cloudy 10 - - - -
19/04:00am 25.4 ESE 18 25 1012.8 - 0.0 - - 10 - - - -
19/03:30am 25.4 ESE 19 26 1012.7 - 0.0 - Partly cloudy 10 - - - -
19/03:00am 25.5 ESE 19 27 1012.8 - 0.0 - Mostly clear 10 - - - -
19/02:30am 25.6 ESE 20 25 1013.0 - 0.0 - - 10 - - - -
19/02:00am 25.6 ESE 18 27 1013.4 - 0.0 - Partly cloudy 10 - - - -
19/01:30am 25.7 ESE 19 26 1013.5 - 0.0 - Partly cloudy 10 - - - -
19/01:00am 25.7 ESE 18 29 1013.9 - 0.0 - Partly cloudy 10 - - - -
19/12:52am 25.8 ESE 17 29 1014.0 - 0.0 - Partly cloudy 10 - - - -
19/12:30am 25.9 ESE 20 25 1014.1 - 0.0 - Partly cloudy 10 - - - -
19/12:00am 25.9 ESE 18 23 1014.3 - 0.0 - Mostly clear 10 - - - -
 
Date/Time
EST
Temp

°C
Wind Pressure Rain
since 9am
mm
Weather Cloud Vis
km
Sea
Height
m
Swell
Dir
 
Speed
knots
Gust
knots
hPa Trend Height
m
Period
s
Dir
18/11:30pm 26.0 ESE 20 28 1014.5 - 0.0 - Partly cloudy 10 - - - -
18/11:00pm 25.9 ESE 17 23 1014.9 - 0.0 - Partly cloudy 10 - - - -
18/10:30pm 26.0 ESE 19 29 1014.9 - 0.0 - Partly cloudy 10 - - - -
18/10:23pm 26.0 ESE 18 29 1014.9 - 0.0 - Partly cloudy 10 - - - -
18/10:00pm 25.9 ESE 16 25 1015.0 - 0.0 - Partly cloudy 10 - - - -
18/09:30pm 25.9 ESE 17 23 1015.0 - 0.0 - - 10 - - - -
18/09:00pm 26.0 ESE 17 22 1014.8 - 0.0 - Mostly clear 10 - - - -
18/08:30pm 26.1 ESE 17 22 1014.6 - 0.0 - Partly cloudy 10 - - - -
18/08:00pm 26.5 ESE 15 22 1014.2 - 0.0 - Partly cloudy 10 - - - -
18/07:35pm 26.4 ESE 17 27 1013.9 - 0.0 - Partly cloudy 10 - - - -
18/07:30pm 26.5 ESE 16 23 1013.8 - 0.0 - Partly cloudy 10 - - - -
18/07:00pm 26.3 ESE 17 24 1013.4 - 0.0 - Partly cloudy 10 - - - -
18/06:30pm 26.4 ESE 17 23 1013.0 - 0.0 - Partly cloudy 10 - - - -
18/06:00pm 26.9 ESE 17 24 1012.7 - 0.0 - Mostly clear 10 - - - -
18/05:30pm 27.4 ESE 19 26 1012.2 - 0.0 - Partly cloudy 10 - - - -
18/05:00pm 27.9 ESE 20 31 1011.8 - 0.0 - - 10 - - - -
18/04:30pm 28.2 ESE 19 27 1011.6 - 0.0 - Partly cloudy 10 - - - -
18/04:00pm 29.1 ESE 19 25 1011.5 - 0.0 - Partly cloudy 10 - - - -
18/03:38pm 28.5 ESE 17 27 1011.5 - 0.0 - Partly cloudy 10 - - - -
18/03:30pm 27.8 ESE 18 27 1011.4 - 0.0 - Partly cloudy 10 - - - -
18/03:00pm 29.8 ESE 19 25 1011.5 - 0.0 - Mostly clear 10 - - - -
18/02:30pm 29.2 E 22 30 1011.7 - 0.0 - Partly cloudy 10 - - - -
18/02:00pm 29.9 E 19 27 1012.0 - 0.0 - Partly cloudy 10 - - - -
18/01:50pm 30.1 E 20 30 1012.0 - 0.0 - Partly cloudy 10 - - - -
18/01:30pm 30.0 E 20 29 1012.5 - 0.0 - Partly cloudy 10 - - - -
18/01:22pm 29.9 E 18 29 1012.5 - 0.0 - - 10 - - - -
18/01:00pm 29.6 ESE 20 27 1012.8 - 0.0 - - 10 - - - -
18/12:30pm 29.3 E 20 26 1013.2 - 0.0 - - 10 - - - -
18/12:00pm 29.5 E 21 27 1013.9 - 0.0 - - 10 - - - -
18/11:30am 29.9 E 19 26 1014.1 - 0.0 - - 10 - - - -
18/11:00am 29.7 E 18 27 1014.4 - 0.0 - - 10 - - - -
18/10:30am 29.3 ESE 20 27 1014.8 - 0.0 - - 10 - - - -
18/10:00am 28.6 ESE 19 24 1015.0 - 0.0 - - 10 - - - -
18/09:42am 28.5 ESE 16 26 1015.3 - 0.0 - - 10 - - - -
18/09:30am 29.0 ESE 16 25 1015.4 - 0.0 - - 10 - - - -
18/09:00am 28.3 E 18 25 1015.2 - 0.0 - Mostly clear 10 - - - -
18/08:30am 28.1 ESE 16 21 1015.3 - 0.0 - Partly cloudy 10 - - - -
18/08:00am 27.7 ESE 15 21 1014.7 - 0.0 - Partly cloudy 10 - - - -
18/07:30am 26.7 ESE 16 21 1014.1 - 0.0 - Partly cloudy 10 - - - -

Other Formats:

Comma delimited format used in spreadsheet applications
http://www.bom.gov.au/fwo/IDQ60701/IDQ60701.94174.axf

JavaScript Object Notation format (JSON) in row-major order
http://www.bom.gov.au/fwo/IDQ60701/IDQ60701.94174.json